createdAt,value
2018-12-09T00:00:21.025Z,987.18
2018-12-09T00:01:20.936Z,987.10
2018-12-09T00:02:20.849Z,987.13
2018-12-09T00:03:20.799Z,987.04
2018-12-09T00:04:20.687Z,987.03
2018-12-09T00:05:20.600Z,987.03
2018-12-09T00:06:20.511Z,986.97
2018-12-09T00:07:20.437Z,986.91
2018-12-09T00:08:20.349Z,986.93
2018-12-09T00:09:20.262Z,986.87
2018-12-09T00:10:20.174Z,986.86
2018-12-09T00:11:20.088Z,986.84
2018-12-09T00:12:20.013Z,986.77
2018-12-09T00:13:19.924Z,986.77
2018-12-09T00:14:19.837Z,986.79
2018-12-09T00:15:19.751Z,986.73
2018-12-09T00:16:19.663Z,986.70
2018-12-09T00:17:19.589Z,986.66
2018-12-09T00:18:19.501Z,986.64
2018-12-09T00:19:19.413Z,986.64
2018-12-09T00:20:19.324Z,986.63
2018-12-09T00:21:19.241Z,986.58
2018-12-09T00:22:19.162Z,986.53
2018-12-09T00:23:19.075Z,986.48
2018-12-09T00:24:18.989Z,986.53
2018-12-09T00:25:18.903Z,986.47
2018-12-09T00:26:18.814Z,986.45
2018-12-09T00:27:18.740Z,986.42
2018-12-09T00:28:18.651Z,986.38
2018-12-09T00:29:18.564Z,986.35
2018-12-09T00:30:18.475Z,986.29
2018-12-09T00:31:18.389Z,986.26
2018-12-09T00:32:18.316Z,986.21
2018-12-09T00:33:18.226Z,986.21
2018-12-09T00:34:18.140Z,986.20
2018-12-09T00:35:18.052Z,986.13
2018-12-09T00:36:17.976Z,986.18
2018-12-09T00:37:17.890Z,986.10
2018-12-09T00:38:17.801Z,986.03
2018-12-09T00:39:17.715Z,986.01
2018-12-09T00:40:17.630Z,986.00
2018-12-09T00:41:17.552Z,985.93
2018-12-09T00:42:17.466Z,985.91
2018-12-09T00:43:17.390Z,985.89
2018-12-09T00:44:17.291Z,985.89
2018-12-09T00:45:17.202Z,985.82
2018-12-09T00:46:17.116Z,985.82
2018-12-09T00:47:17.040Z,985.80
2018-12-09T00:48:16.953Z,985.85
2018-12-09T00:49:16.866Z,985.83
2018-12-09T00:50:16.780Z,985.76
2018-12-09T00:51:16.691Z,985.70
2018-12-09T00:52:16.616Z,985.74
2018-12-09T00:53:16.527Z,985.80
2018-12-09T00:54:16.441Z,985.76
2018-12-09T00:55:16.356Z,985.66
2018-12-09T00:56:16.278Z,985.69
2018-12-09T00:57:16.192Z,985.64
2018-12-09T00:58:16.104Z,985.60
2018-12-09T00:59:16.018Z,985.61
2018-12-09T01:00:15.943Z,985.52
2018-12-09T01:01:15.842Z,985.48
2018-12-09T01:02:15.772Z,985.49
2018-12-09T01:03:15.679Z,985.42
2018-12-09T01:04:15.592Z,985.44
2018-12-09T01:05:15.505Z,985.40
2018-12-09T01:06:15.417Z,985.32
2018-12-09T01:07:15.343Z,985.23
2018-12-09T01:08:15.255Z,985.20
2018-12-09T01:09:15.168Z,985.16
2018-12-09T01:10:15.080Z,985.16
2018-12-09T01:11:14.994Z,985.04
2018-12-09T01:12:14.919Z,984.92
2018-12-09T01:13:14.830Z,984.86
2018-12-09T01:14:14.744Z,984.87
2018-12-09T01:15:14.668Z,984.85
2018-12-09T01:16:14.580Z,984.96
2018-12-09T01:17:14.495Z,984.89
2018-12-09T01:18:14.407Z,984.84
2018-12-09T01:19:14.331Z,984.79
2018-12-09T01:20:14.231Z,984.71
2018-12-09T01:21:14.169Z,984.69
2018-12-09T01:22:14.069Z,984.64
2018-12-09T01:23:13.982Z,984.62
2018-12-09T01:24:13.895Z,984.62
2018-12-09T01:25:13.807Z,984.59
2018-12-09T01:26:13.732Z,984.56
2018-12-09T01:27:13.647Z,984.56
2018-12-09T01:28:13.557Z,984.54
2018-12-09T01:29:13.471Z,984.52
2018-12-09T01:30:13.385Z,984.48
2018-12-09T01:31:13.309Z,984.45
2018-12-09T01:32:13.220Z,984.46
2018-12-09T01:33:13.138Z,984.40
2018-12-09T01:34:13.046Z,984.45
2018-12-09T01:35:12.958Z,984.37
2018-12-09T01:36:12.883Z,984.37
2018-12-09T01:37:12.796Z,984.33
2018-12-09T01:38:12.709Z,984.35
2018-12-09T01:39:12.622Z,984.37
2018-12-09T01:40:12.535Z,984.32
2018-12-09T01:41:12.460Z,984.28
2018-12-09T01:42:12.372Z,984.23
2018-12-09T01:43:12.284Z,984.23
2018-12-09T01:44:12.197Z,984.18
2018-12-09T01:45:12.115Z,984.21
2018-12-09T01:46:12.035Z,984.15
2018-12-09T01:47:11.948Z,984.18
2018-12-09T01:48:11.860Z,984.11
2018-12-09T01:49:11.773Z,984.07
2018-12-09T01:50:11.698Z,984.07
2018-12-09T01:51:11.610Z,984.05
2018-12-09T01:52:11.535Z,984.08
2018-12-09T01:53:11.435Z,984.11
2018-12-09T01:54:11.356Z,984.11
2018-12-09T01:55:11.274Z,984.10
2018-12-09T01:56:11.189Z,984.07
2018-12-09T01:57:11.098Z,984.04
2018-12-09T01:58:11.011Z,983.97
2018-12-09T01:59:10.936Z,983.93
2018-12-09T02:00:10.852Z,983.93
2018-12-09T02:01:10.777Z,983.87
2018-12-09T02:02:10.674Z,983.88
2018-12-09T02:03:10.588Z,983.92
2018-12-09T02:04:10.511Z,983.86
2018-12-09T02:05:10.424Z,983.82
2018-12-09T02:06:10.340Z,983.82
2018-12-09T02:07:10.251Z,983.84
2018-12-09T02:08:10.175Z,983.81
2018-12-09T02:09:10.086Z,983.79
2018-12-09T02:10:10.003Z,983.70
2018-12-09T02:11:09.912Z,983.65
2018-12-09T02:12:09.837Z,983.75
2018-12-09T02:13:09.751Z,983.74
2018-12-09T02:14:09.679Z,983.67
2018-12-09T02:15:09.576Z,983.65
2018-12-09T02:16:09.489Z,983.62
2018-12-09T02:17:09.416Z,983.61
2018-12-09T02:18:09.326Z,983.61
2018-12-09T02:19:09.238Z,983.54
2018-12-09T02:20:09.153Z,983.58
2018-12-09T02:21:09.064Z,983.51
2018-12-09T02:22:08.988Z,983.55
2018-12-09T02:23:08.902Z,983.53
2018-12-09T02:24:08.814Z,983.47
2018-12-09T02:25:08.727Z,983.42
2018-12-09T02:26:08.652Z,983.41
2018-12-09T02:27:08.564Z,983.38
2018-12-09T02:28:08.477Z,983.39
2018-12-09T02:29:08.399Z,983.35
2018-12-09T02:30:08.303Z,983.32
2018-12-09T02:31:08.228Z,983.32
2018-12-09T02:32:08.142Z,983.32
2018-12-09T02:33:08.057Z,983.25
2018-12-09T02:34:07.978Z,983.25
2018-12-09T02:35:07.891Z,983.24
2018-12-09T02:36:07.802Z,983.25
2018-12-09T02:37:07.715Z,983.18
2018-12-09T02:38:07.640Z,983.17
2018-12-09T02:39:07.553Z,983.20
2018-12-09T02:40:07.478Z,983.21
2018-12-09T02:41:07.379Z,983.13
2018-12-09T02:42:07.290Z,983.14
2018-12-09T02:43:07.217Z,983.14
2018-12-09T02:44:07.132Z,983.11
2018-12-09T02:45:07.041Z,983.11
2018-12-09T02:46:06.956Z,983.07
2018-12-09T02:47:06.868Z,983.03
2018-12-09T02:48:06.791Z,983.00
2018-12-09T02:49:06.705Z,982.97
2018-12-09T02:50:06.630Z,982.99
2018-12-09T02:51:06.529Z,982.97
2018-12-09T02:52:06.460Z,982.98
2018-12-09T02:53:06.369Z,982.97
2018-12-09T02:54:06.281Z,982.96
2018-12-09T02:55:06.192Z,982.97
2018-12-09T02:56:06.117Z,982.86
2018-12-09T02:57:06.043Z,982.87
2018-12-09T02:58:05.945Z,982.80
2018-12-09T02:59:05.857Z,982.80
2018-12-09T03:00:05.781Z,982.75
2018-12-09T03:01:05.693Z,982.82
2018-12-09T03:02:05.606Z,982.75
2018-12-09T03:03:05.519Z,982.74
2018-12-09T03:04:05.443Z,982.76
2018-12-09T03:05:05.356Z,982.75
2018-12-09T03:06:05.270Z,982.73
2018-12-09T03:07:05.184Z,982.71
2018-12-09T03:08:05.106Z,982.63
2018-12-09T03:09:05.019Z,982.73
2018-12-09T03:10:04.931Z,982.71
2018-12-09T03:11:04.845Z,982.71
2018-12-09T03:12:04.769Z,982.67
2018-12-09T03:13:04.682Z,982.68
2018-12-09T03:14:04.596Z,982.67
2018-12-09T03:15:04.507Z,982.54
2018-12-09T03:16:04.421Z,982.60
2018-12-09T03:17:04.348Z,982.55
2018-12-09T03:18:04.259Z,982.62
2018-12-09T03:19:04.169Z,982.63
2018-12-09T03:20:04.095Z,982.59
2018-12-09T03:21:04.009Z,982.56
2018-12-09T03:22:03.920Z,982.60
2018-12-09T03:23:03.832Z,982.52
2018-12-09T03:24:03.757Z,982.59
2018-12-09T03:25:03.670Z,982.54
2018-12-09T03:26:03.583Z,982.53
2018-12-09T03:27:03.497Z,982.50
2018-12-09T03:28:03.420Z,982.52
2018-12-09T03:29:03.335Z,982.51
2018-12-09T03:30:03.259Z,982.43
2018-12-09T03:31:03.160Z,982.45
2018-12-09T03:32:03.074Z,982.46
2018-12-09T03:33:02.999Z,982.47
2018-12-09T03:34:02.912Z,982.49
2018-12-09T03:35:02.821Z,982.43
2018-12-09T03:36:02.751Z,982.46
2018-12-09T03:37:02.750Z,982.44
2018-12-09T03:38:02.571Z,982.45
2018-12-09T03:39:02.486Z,982.45
2018-12-09T03:40:02.464Z,982.39
2018-12-09T03:41:02.323Z,982.38
2018-12-09T03:42:02.242Z,982.37
2018-12-09T03:43:02.146Z,982.36
2018-12-09T03:44:02.072Z,982.36
2018-12-09T03:45:01.985Z,982.37
2018-12-09T03:46:01.912Z,982.35
2018-12-09T03:47:01.828Z,982.37
2018-12-09T03:48:01.746Z,982.38
2018-12-09T03:49:01.648Z,982.39
2018-12-09T03:50:01.562Z,982.44
2018-12-09T03:51:01.474Z,982.39
2018-12-09T03:52:01.411Z,982.39
2018-12-09T03:53:01.311Z,982.38
2018-12-09T03:54:01.224Z,982.30
2018-12-09T03:55:01.147Z,982.30
2018-12-09T03:56:01.050Z,982.27
2018-12-09T03:57:00.974Z,982.22
2018-12-09T03:58:00.887Z,982.26
2018-12-09T03:59:00.814Z,982.22
2018-12-09T04:00:00.724Z,982.22
2018-12-09T04:01:00.644Z,982.22
2018-12-09T04:02:00.549Z,982.27
2018-12-09T04:03:00.462Z,982.27
2018-12-09T04:04:00.384Z,982.26
2018-12-09T04:05:00.301Z,982.28
2018-12-09T04:06:00.216Z,982.26
2018-12-09T04:07:00.125Z,982.28
2018-12-09T04:08:00.046Z,982.31
2018-12-09T04:08:59.963Z,982.29
2018-12-09T04:09:59.879Z,982.23
2018-12-09T04:10:59.789Z,982.28
2018-12-09T04:11:59.700Z,982.25
2018-12-09T04:12:59.625Z,982.30
2018-12-09T04:13:59.538Z,982.24
2018-12-09T04:14:59.452Z,982.24
2018-12-09T04:15:59.364Z,982.24
2018-12-09T04:16:59.288Z,982.27
2018-12-09T04:17:59.201Z,982.28
2018-12-09T04:18:59.114Z,982.16
2018-12-09T04:19:59.039Z,982.18
2018-12-09T04:20:58.952Z,982.18
2018-12-09T04:21:58.864Z,982.14
2018-12-09T04:22:58.777Z,982.15
2018-12-09T04:23:58.701Z,982.17
2018-12-09T04:24:58.616Z,982.15
2018-12-09T04:25:58.541Z,982.13
2018-12-09T04:26:58.440Z,982.07
2018-12-09T04:27:58.352Z,982.11
2018-12-09T04:28:58.279Z,982.12
2018-12-09T04:29:58.190Z,982.13
2018-12-09T04:30:58.102Z,982.10
2018-12-09T04:31:58.018Z,982.12
2018-12-09T04:32:57.941Z,982.15
2018-12-09T04:33:57.852Z,982.06
2018-12-09T04:34:57.767Z,982.09
2018-12-09T04:35:57.699Z,982.10
2018-12-09T04:36:57.603Z,982.13
2018-12-09T04:37:57.518Z,982.11
2018-12-09T04:38:57.431Z,982.14
2018-12-09T04:39:57.342Z,982.15
2018-12-09T04:40:57.267Z,982.16
2018-12-09T04:41:57.191Z,982.09
2018-12-09T04:42:57.092Z,982.19
2018-12-09T04:43:57.007Z,982.12
2018-12-09T04:44:56.932Z,982.12
2018-12-09T04:45:56.842Z,982.11
2018-12-09T04:46:56.754Z,982.13
2018-12-09T04:47:56.681Z,982.11
2018-12-09T04:48:56.594Z,982.17
2018-12-09T04:49:56.518Z,982.21
2018-12-09T04:50:56.419Z,982.16
2018-12-09T04:51:56.347Z,982.17
2018-12-09T04:52:56.255Z,982.20
2018-12-09T04:53:56.169Z,982.22
2018-12-09T04:54:56.081Z,982.22
2018-12-09T04:55:56.018Z,982.16
2018-12-09T04:56:55.919Z,982.19
2018-12-09T04:57:55.832Z,982.18
2018-12-09T04:58:55.745Z,982.23
2018-12-09T04:59:55.670Z,982.19
2018-12-09T05:00:55.582Z,982.20
2018-12-09T05:01:55.501Z,982.20
2018-12-09T05:02:55.407Z,982.20
2018-12-09T05:03:55.331Z,982.30
2018-12-09T05:04:55.246Z,982.29
2018-12-09T05:05:55.157Z,982.21
2018-12-09T05:06:55.081Z,982.29
2018-12-09T05:07:55.002Z,982.26
2018-12-09T05:08:54.907Z,982.24
2018-12-09T05:09:54.821Z,982.26
2018-12-09T05:10:54.746Z,982.24
2018-12-09T05:11:54.671Z,982.31
2018-12-09T05:12:54.570Z,982.24
2018-12-09T05:13:54.483Z,982.27
2018-12-09T05:14:54.409Z,982.30
2018-12-09T05:15:54.322Z,982.30
2018-12-09T05:16:54.234Z,982.35
2018-12-09T05:17:54.147Z,982.43
2018-12-09T05:18:54.072Z,982.43
2018-12-09T05:19:53.983Z,982.40
2018-12-09T05:20:53.897Z,982.37
2018-12-09T05:21:53.810Z,982.36
2018-12-09T05:22:53.735Z,982.43
2018-12-09T05:23:53.649Z,982.48
2018-12-09T05:24:53.560Z,982.52
2018-12-09T05:25:53.497Z,982.49
2018-12-09T05:26:53.397Z,982.49
2018-12-09T05:27:53.310Z,982.54
2018-12-09T05:28:53.222Z,982.52
2018-12-09T05:29:53.148Z,982.55
2018-12-09T05:30:53.060Z,982.63
2018-12-09T05:31:52.973Z,982.46
2018-12-09T05:32:52.885Z,982.61
2018-12-09T05:33:52.810Z,982.51
2018-12-09T05:34:52.730Z,982.63
2018-12-09T05:35:52.648Z,982.59
2018-12-09T05:36:52.555Z,982.54
2018-12-09T05:37:52.478Z,982.64
2018-12-09T05:38:52.399Z,982.65
2018-12-09T05:39:52.299Z,982.61
2018-12-09T05:40:52.227Z,982.56
2018-12-09T05:41:52.149Z,982.63
2018-12-09T05:42:52.049Z,982.62
2018-12-09T05:43:51.963Z,982.67
2018-12-09T05:44:51.886Z,982.63
2018-12-09T05:45:51.800Z,982.71
2018-12-09T05:46:51.718Z,982.65
2018-12-09T05:47:51.626Z,982.72
2018-12-09T05:48:51.550Z,982.67
2018-12-09T05:49:51.462Z,982.73
2018-12-09T05:50:51.375Z,982.73
2018-12-09T05:51:51.288Z,982.60
2018-12-09T05:52:51.212Z,982.65
2018-12-09T05:53:51.156Z,982.69
2018-12-09T05:54:51.038Z,982.58
2018-12-09T05:55:50.975Z,982.66
2018-12-09T05:56:50.876Z,982.68
2018-12-09T05:57:50.788Z,982.74
2018-12-09T05:58:50.702Z,982.52
2018-12-09T05:59:50.626Z,982.72
2018-12-09T06:00:50.538Z,982.61
2018-12-09T06:01:50.452Z,982.73
2018-12-09T06:02:50.363Z,982.74
2018-12-09T06:03:50.289Z,982.75
2018-12-09T06:04:50.202Z,982.70
2018-12-09T06:05:50.113Z,982.84
2018-12-09T06:06:50.027Z,982.69
2018-12-09T06:07:49.953Z,982.79
2018-12-09T06:08:49.864Z,982.74
2018-12-09T06:09:49.778Z,982.67
2018-12-09T06:10:49.690Z,982.77
2018-12-09T06:11:49.615Z,982.75
2018-12-09T06:12:49.528Z,982.68
2018-12-09T06:13:49.440Z,982.76
2018-12-09T06:14:49.358Z,982.78
2018-12-09T06:15:49.280Z,982.71
2018-12-09T06:16:49.190Z,982.77
2018-12-09T06:17:49.103Z,982.81
2018-12-09T06:18:49.016Z,982.79
2018-12-09T06:19:48.940Z,982.87
2018-12-09T06:20:48.854Z,982.95
2018-12-09T06:21:48.765Z,982.91
2018-12-09T06:22:48.679Z,982.92
2018-12-09T06:23:48.604Z,982.93
2018-12-09T06:24:48.516Z,982.87
2018-12-09T06:25:48.429Z,982.92
2018-12-09T06:26:48.355Z,983.01
2018-12-09T06:27:48.266Z,983.02
2018-12-09T06:28:48.180Z,983.05
2018-12-09T06:29:48.105Z,983.00
2018-12-09T06:30:48.018Z,983.02
2018-12-09T06:31:47.929Z,983.05
2018-12-09T06:32:47.854Z,983.08
2018-12-09T06:33:47.756Z,983.06
2018-12-09T06:34:47.680Z,982.98
2018-12-09T06:35:47.592Z,983.08
2018-12-09T06:36:47.508Z,983.17
2018-12-09T06:37:47.417Z,983.13
2018-12-09T06:38:47.355Z,983.14
2018-12-09T06:39:47.255Z,983.16
2018-12-09T06:40:47.167Z,983.14
2018-12-09T06:41:47.081Z,983.21
2018-12-09T06:42:47.007Z,983.28
2018-12-09T06:43:46.918Z,983.15
2018-12-09T06:44:46.831Z,983.20
2018-12-09T06:45:46.746Z,983.31
2018-12-09T06:46:46.668Z,983.23
2018-12-09T06:47:46.582Z,983.18
2018-12-09T06:48:46.493Z,983.30
2018-12-09T06:49:46.406Z,983.27
2018-12-09T06:50:46.333Z,983.31
2018-12-09T06:51:46.244Z,983.29
2018-12-09T06:52:46.159Z,983.28
2018-12-09T06:53:46.073Z,983.34
2018-12-09T06:54:45.995Z,983.36
2018-12-09T06:55:45.908Z,983.33
2018-12-09T06:56:45.819Z,983.31
2018-12-09T06:57:45.733Z,983.40
2018-12-09T06:58:45.658Z,983.47
2018-12-09T06:59:45.585Z,983.42
2018-12-09T07:00:45.483Z,983.56
2018-12-09T07:01:45.398Z,983.47
2018-12-09T07:02:45.321Z,983.56
2018-12-09T07:03:45.305Z,983.56
2018-12-09T07:04:45.146Z,983.54
2018-12-09T07:05:45.059Z,983.61
2018-12-09T07:06:44.985Z,983.61
2018-12-09T07:07:44.897Z,983.59
2018-12-09T07:08:44.809Z,983.60
2018-12-09T07:09:44.721Z,983.76
2018-12-09T07:10:44.646Z,983.76
2018-12-09T07:11:44.559Z,983.96
2018-12-09T07:12:44.471Z,983.79
2018-12-09T07:13:44.384Z,983.82
2018-12-09T07:14:44.311Z,983.86
2018-12-09T07:15:44.222Z,983.94
2018-12-09T07:16:44.135Z,983.92
2018-12-09T07:17:44.047Z,983.93
2018-12-09T07:18:43.972Z,983.97
2018-12-09T07:19:43.887Z,984.02
2018-12-09T07:20:43.797Z,984.09
2018-12-09T07:21:43.710Z,984.02
2018-12-09T07:22:43.636Z,984.08
2018-12-09T07:23:43.551Z,984.11
2018-12-09T07:24:43.461Z,984.08
2018-12-09T07:25:43.372Z,984.16
2018-12-09T07:26:43.299Z,984.15
2018-12-09T07:27:43.210Z,984.17
2018-12-09T07:28:43.124Z,984.26
2018-12-09T07:29:43.038Z,984.24
2018-12-09T07:30:42.962Z,984.33
2018-12-09T07:31:42.874Z,984.28
2018-12-09T07:32:42.787Z,984.34
2018-12-09T07:33:42.700Z,984.33
2018-12-09T07:34:42.625Z,984.27
2018-12-09T07:35:42.540Z,984.38
2018-12-09T07:36:42.451Z,984.36
2018-12-09T07:37:42.362Z,984.41
2018-12-09T07:38:42.287Z,984.41
2018-12-09T07:39:42.199Z,984.38
2018-12-09T07:40:42.126Z,984.43
2018-12-09T07:41:42.026Z,984.36
2018-12-09T07:42:41.950Z,984.39
2018-12-09T07:43:41.862Z,984.39
2018-12-09T07:44:41.774Z,984.41
2018-12-09T07:45:41.688Z,984.40
2018-12-09T07:46:41.614Z,984.43
2018-12-09T07:47:41.525Z,984.49
2018-12-09T07:48:41.439Z,984.46
2018-12-09T07:49:41.352Z,984.51
2018-12-09T07:50:41.277Z,984.56
2018-12-09T07:51:41.189Z,984.57
2018-12-09T07:52:41.116Z,984.52
2018-12-09T07:53:41.026Z,984.57
2018-12-09T07:54:40.944Z,984.60
2018-12-09T07:55:40.852Z,984.61
2018-12-09T07:56:40.764Z,984.59
2018-12-09T07:57:40.690Z,984.62
2018-12-09T07:58:40.603Z,984.64
2018-12-09T07:59:40.516Z,984.65
2018-12-09T08:00:40.427Z,984.63
2018-12-09T08:01:40.448Z,984.70
2018-12-09T08:02:40.266Z,984.72
2018-12-09T08:03:40.272Z,984.74
2018-12-09T08:04:40.140Z,984.76
2018-12-09T08:05:40.016Z,984.76
2018-12-09T08:06:39.927Z,984.82
2018-12-09T08:07:39.845Z,984.87
2018-12-09T08:08:39.754Z,984.89
2018-12-09T08:09:39.677Z,984.89
2018-12-09T08:10:39.594Z,984.93
2018-12-09T08:11:39.503Z,984.99
2018-12-09T08:12:39.428Z,985.03
2018-12-09T08:13:39.341Z,985.01
2018-12-09T08:14:39.255Z,985.12
2018-12-09T08:15:39.166Z,985.06
2018-12-09T08:16:39.092Z,985.03
2018-12-09T08:17:39.008Z,985.07
2018-12-09T08:18:38.916Z,985.10
2018-12-09T08:19:38.830Z,985.11
2018-12-09T08:20:38.754Z,985.06
2018-12-09T08:21:38.670Z,985.16
2018-12-09T08:22:38.579Z,985.08
2018-12-09T08:23:38.506Z,985.11
2018-12-09T08:24:38.417Z,985.13
2018-12-09T08:25:38.329Z,985.12
2018-12-09T08:26:38.244Z,985.20
2018-12-09T08:27:38.156Z,985.23
2018-12-09T08:28:38.080Z,985.20
2018-12-09T08:29:37.993Z,985.20
2018-12-09T08:30:37.905Z,985.17
2018-12-09T08:31:37.830Z,985.27
2018-12-09T08:32:37.748Z,985.23
2018-12-09T08:33:37.655Z,985.29
2018-12-09T08:34:37.568Z,985.30
2018-12-09T08:35:37.494Z,985.28
2018-12-09T08:36:37.405Z,985.31
2018-12-09T08:37:37.319Z,985.31
2018-12-09T08:38:37.231Z,985.37
2018-12-09T08:39:37.156Z,985.41
2018-12-09T08:40:37.069Z,985.36
2018-12-09T08:41:36.980Z,985.42
2018-12-09T08:42:36.894Z,985.44
2018-12-09T08:43:36.819Z,985.44
2018-12-09T08:44:36.744Z,985.50
2018-12-09T08:45:36.645Z,985.45
2018-12-09T08:46:36.558Z,985.46
2018-12-09T08:47:36.561Z,985.49
2018-12-09T08:48:36.395Z,985.54
2018-12-09T08:49:36.309Z,985.55
2018-12-09T08:50:36.220Z,985.59
2018-12-09T08:51:36.145Z,985.63
2018-12-09T08:52:36.058Z,985.65
2018-12-09T08:53:35.970Z,985.63
2018-12-09T08:54:35.883Z,985.67
2018-12-09T08:55:35.808Z,985.69
2018-12-09T08:56:35.722Z,985.69
2018-12-09T08:57:35.645Z,985.70
2018-12-09T08:58:35.546Z,985.71
2018-12-09T08:59:35.472Z,985.81
2018-12-09T09:00:35.382Z,985.72
2018-12-09T09:01:35.310Z,985.79
2018-12-09T09:02:35.209Z,985.77
2018-12-09T09:03:35.147Z,985.87
2018-12-09T09:04:35.047Z,985.81
2018-12-09T09:05:34.958Z,985.89
2018-12-09T09:06:34.872Z,985.87
2018-12-09T09:07:34.797Z,985.87
2018-12-09T09:08:34.709Z,985.89
2018-12-09T09:09:34.624Z,985.91
2018-12-09T09:10:34.536Z,986.00
2018-12-09T09:11:34.459Z,985.95
2018-12-09T09:12:34.372Z,986.01
2018-12-09T09:13:34.285Z,986.02
2018-12-09T09:14:34.211Z,986.05
2018-12-09T09:15:34.122Z,986.07
2018-12-09T09:16:34.041Z,986.06
2018-12-09T09:17:33.948Z,986.03
2018-12-09T09:18:33.875Z,986.13
2018-12-09T09:19:33.799Z,986.09
2018-12-09T09:20:33.698Z,986.15
2018-12-09T09:21:33.623Z,986.09
2018-12-09T09:22:33.535Z,986.13
2018-12-09T09:23:33.450Z,986.09
2018-12-09T09:24:33.361Z,986.09
2018-12-09T09:25:33.274Z,986.12
2018-12-09T09:26:33.199Z,986.15
2018-12-09T09:27:33.111Z,986.20
2018-12-09T09:28:33.025Z,986.22
2018-12-09T09:29:32.950Z,986.25
2018-12-09T09:30:32.861Z,986.18
2018-12-09T09:31:32.775Z,986.22
2018-12-09T09:32:32.689Z,986.23
2018-12-09T09:33:32.624Z,986.17
2018-12-09T09:34:32.524Z,986.25
2018-12-09T09:35:32.436Z,986.23
2018-12-09T09:36:32.350Z,986.24
2018-12-09T09:37:32.274Z,986.25
2018-12-09T09:38:32.189Z,986.30
2018-12-09T09:39:32.100Z,986.29
2018-12-09T09:40:32.025Z,986.26
2018-12-09T09:41:31.937Z,986.31
2018-12-09T09:42:31.850Z,986.28
2018-12-09T09:43:31.765Z,986.28
2018-12-09T09:44:31.690Z,986.31
2018-12-09T09:45:31.601Z,986.30
2018-12-09T09:46:31.514Z,986.31
2018-12-09T09:47:31.438Z,986.32
2018-12-09T09:48:31.351Z,986.33
2018-12-09T09:49:31.277Z,986.37
2018-12-09T09:50:31.180Z,986.42
2018-12-09T09:51:31.105Z,986.46
2018-12-09T09:52:31.014Z,986.39
2018-12-09T09:53:30.928Z,986.44
2018-12-09T09:54:30.840Z,986.44
2018-12-09T09:55:30.764Z,986.44
2018-12-09T09:56:30.677Z,986.47
2018-12-09T09:57:30.591Z,986.45
2018-12-09T09:58:30.589Z,986.51
2018-12-09T09:59:30.427Z,986.53
2018-12-09T10:00:30.339Z,986.52
2018-12-09T10:01:30.253Z,986.56
2018-12-09T10:02:30.180Z,986.54
2018-12-09T10:03:30.089Z,986.48
2018-12-09T10:04:30.007Z,986.49
2018-12-09T10:05:29.916Z,986.49
2018-12-09T10:06:29.839Z,986.53
2018-12-09T10:07:29.752Z,986.58
2018-12-09T10:08:29.678Z,986.59
2018-12-09T10:09:29.590Z,986.61
2018-12-09T10:10:29.507Z,986.60
2018-12-09T10:11:29.417Z,986.61
2018-12-09T10:12:29.334Z,986.64
2018-12-09T10:13:29.256Z,986.66
2018-12-09T10:14:29.179Z,986.69
2018-12-09T10:15:29.079Z,986.63
2018-12-09T10:16:29.012Z,986.66
2018-12-09T10:17:28.916Z,986.68
2018-12-09T10:18:28.829Z,986.63
2018-12-09T10:19:28.743Z,986.66
2018-12-09T10:20:28.679Z,986.69
2018-12-09T10:21:28.579Z,986.67
2018-12-09T10:22:28.493Z,986.59
2018-12-09T10:23:28.416Z,986.72
2018-12-09T10:24:28.329Z,986.66
2018-12-09T10:25:28.242Z,986.70
2018-12-09T10:26:36.224Z,986.74
2018-12-09T10:27:28.080Z,986.74
2018-12-09T10:28:27.991Z,986.67
2018-12-09T10:29:27.906Z,986.68
2018-12-09T10:30:27.831Z,986.68
2018-12-09T10:31:27.744Z,986.68
2018-12-09T10:32:27.655Z,986.71
2018-12-09T10:33:27.580Z,986.71
2018-12-09T10:34:27.507Z,986.65
2018-12-09T10:35:27.445Z,986.63
2018-12-09T10:36:27.319Z,986.67
2018-12-09T10:37:27.243Z,986.67
2018-12-09T10:38:27.156Z,986.74
2018-12-09T10:39:27.068Z,986.72
2018-12-09T10:40:26.995Z,986.75
2018-12-09T10:41:26.908Z,986.75
2018-12-09T10:42:26.819Z,986.75
2018-12-09T10:43:26.745Z,986.71
2018-12-09T10:44:26.657Z,986.74
2018-12-09T10:45:26.569Z,986.74
2018-12-09T10:46:26.483Z,986.71
2018-12-09T10:47:26.407Z,986.81
2018-12-09T10:48:26.319Z,986.77
2018-12-09T10:49:26.234Z,986.78
2018-12-09T10:50:26.157Z,986.80
2018-12-09T10:51:26.070Z,986.84
2018-12-09T10:52:25.982Z,986.84
2018-12-09T10:53:25.907Z,986.77
2018-12-09T10:54:25.837Z,986.85
2018-12-09T10:55:25.734Z,986.84
2018-12-09T10:56:25.660Z,986.85
2018-12-09T10:57:25.570Z,986.84
2018-12-09T10:58:25.494Z,986.81
2018-12-09T10:59:25.396Z,986.82
2018-12-09T11:00:25.321Z,986.87
2018-12-09T11:01:25.233Z,986.90
2018-12-09T11:02:25.159Z,986.85
2018-12-09T11:03:25.071Z,986.86
2018-12-09T11:04:24.984Z,986.88
2018-12-09T11:05:24.896Z,986.91
2018-12-09T11:06:24.821Z,986.86
2018-12-09T11:07:24.734Z,986.86
2018-12-09T11:08:24.649Z,986.84
2018-12-09T11:09:24.575Z,986.95
2018-12-09T11:10:24.486Z,986.88
2018-12-09T11:11:24.397Z,987.01
2018-12-09T11:12:24.323Z,986.94
2018-12-09T11:13:24.235Z,986.92
2018-12-09T11:14:24.148Z,986.94
2018-12-09T11:15:24.073Z,986.98
2018-12-09T11:16:23.985Z,986.96
2018-12-09T11:17:23.898Z,987.03
2018-12-09T11:18:23.824Z,986.96
2018-12-09T11:19:23.736Z,986.95
2018-12-09T11:20:23.648Z,986.97
2018-12-09T11:21:30.404Z,986.98
2018-12-09T11:22:23.487Z,987.01
2018-12-09T11:23:23.401Z,986.99
2018-12-09T11:24:23.317Z,987.06
2018-12-09T11:25:23.239Z,987.03
2018-12-09T11:26:23.150Z,987.00
2018-12-09T11:27:23.062Z,987.02
2018-12-09T11:28:22.987Z,986.98
2018-12-09T11:29:22.899Z,986.99
2018-12-09T11:30:22.813Z,986.96
2018-12-09T11:31:22.737Z,986.96
2018-12-09T11:32:22.741Z,987.00
2018-12-09T11:33:22.563Z,987.01
2018-12-09T11:34:22.476Z,987.02
2018-12-09T11:35:22.400Z,987.03
2018-12-09T11:36:22.314Z,987.02
2018-12-09T11:37:22.226Z,987.02
2018-12-09T11:38:22.150Z,987.02
2018-12-09T11:39:22.072Z,986.93
2018-12-09T11:40:21.976Z,986.94
2018-12-09T11:41:21.901Z,986.95
2018-12-09T11:42:21.815Z,986.92
2018-12-09T11:43:21.728Z,986.90
2018-12-09T11:44:21.652Z,986.88
2018-12-09T11:45:21.569Z,986.92
2018-12-09T11:46:21.477Z,986.92
2018-12-09T11:47:21.402Z,986.96
2018-12-09T11:48:21.317Z,986.94
2018-12-09T11:49:21.229Z,986.93
2018-12-09T11:50:21.141Z,986.96
2018-12-09T11:51:21.066Z,986.98
2018-12-09T11:52:20.983Z,986.94
2018-12-09T11:53:20.895Z,986.97
2018-12-09T11:54:20.817Z,986.99
2018-12-09T11:55:20.728Z,987.03
2018-12-09T11:56:20.641Z,987.00
2018-12-09T11:57:20.567Z,987.04
2018-12-09T11:58:20.483Z,987.04
2018-12-09T11:59:20.395Z,987.04
2018-12-09T12:00:20.316Z,987.10
2018-12-09T12:01:20.228Z,987.02
2018-12-09T12:02:20.364Z,987.04
2018-12-09T12:03:20.067Z,987.05
2018-12-09T12:04:19.979Z,987.07
2018-12-09T12:05:19.895Z,987.03
2018-12-09T12:06:19.817Z,987.04
2018-12-09T12:07:19.729Z,987.05
2018-12-09T12:08:19.643Z,987.06
2018-12-09T12:09:19.568Z,987.06
2018-12-09T12:10:19.482Z,987.09
2018-12-09T12:11:19.393Z,987.11
2018-12-09T12:12:21.395Z,987.12
2018-12-09T12:13:19.230Z,987.18
2018-12-09T12:14:19.143Z,987.10
2018-12-09T12:15:19.074Z,987.14
2018-12-09T12:16:18.980Z,987.16
2018-12-09T12:17:18.894Z,987.16
2018-12-09T12:18:18.819Z,987.15
2018-12-09T12:19:18.981Z,987.16
2018-12-09T12:20:18.644Z,987.16
2018-12-09T12:21:18.570Z,987.19
2018-12-09T12:22:18.481Z,987.18
2018-12-09T12:23:18.394Z,987.14
2018-12-09T12:24:18.319Z,987.17
2018-12-09T12:25:18.233Z,987.23
2018-12-09T12:26:18.145Z,987.23
2018-12-09T12:27:18.070Z,987.25